Airport View

Enter AWOS ICAO identifier for current METAR.

ex. KFNL

KTQH 310335Z AUTO 00000KT 10SM CLR 17/14 A3017 RMK AO2

31 May 2020 04:02

Frequency: 118.425

Phone: 918-453-2729

Other Area AWOS: KMKO - KSLG - KJSV - KGCM

TAF KXNA 302320Z 3100/3124 05004KT P6SM FEW250 FM311400 14007KT P6SM FEW120